Time;durP1;ratioP1;P1;durP2;ratioP2;P2;SDS_P1;SDS_P2;PMS_P1;PMS_P2;Temp;Humidity;BMP_temperature;BMP_pressure;BME280_temperature;BME280_humidity;BME280_pressure;Samples;Min_cycle;Max_cycle;Signal;HPM_P1;HPM_P2
2023/09/05 00:01:03;;;;;;;1.80;1.40;;;;;;;16.35;66.48;101094.11;88436;280;138010;-59
2023/09/05 00:03:07;;;;;;;2.10;1.20;;;;;;;16.32;66.62;101089.31;88645;280;22536;-58
2023/09/05 00:05:11;;;;;;;1.40;1.00;;;;;;;16.29;66.94;101093.00;88566;273;136183;-59
2023/09/05 00:07:14;;;;;;;3.40;1.60;;;;;;;16.26;67.13;101095.73;88534;277;24108;-62
2023/09/05 00:09:18;;;;;;;3.60;1.10;;;;;;;16.26;67.41;101100.13;88402;279;137647;-59
2023/09/05 00:11:19;;;;;;;2.10;1.60;;;;;;;16.26;67.31;101103.52;88668;273;22645;-62
2023/09/05 00:13:21;;;;;;;0.80;0.80;;;;;;;16.23;67.61;101105.00;88429;273;136268;-60
2023/09/05 00:15:24;;;;;;;1.10;0.90;;;;;;;16.17;67.96;101101.77;88563;273;22531;-60
2023/09/05 00:17:26;;;;;;;1.50;0.90;;;;;;;16.08;68.45;101100.67;88337;279;135939;-60
2023/09/05 00:19:28;;;;;;;1.00;0.80;;;;;;;16.04;68.43;101104.83;88653;281;25185;-58
2023/09/05 00:21:29;;;;;;;1.40;1.00;;;;;;;15.96;68.68;101090.27;88267;274;137471;-60
2023/09/05 00:23:31;;;;;;;1.80;0.70;;;;;;;16.05;68.68;101103.80;88586;273;24021;-60
2023/09/05 00:25:34;;;;;;;0.80;0.80;;;;;;;16.10;68.50;101101.61;88428;280;137106;-59
2023/09/05 00:27:35;;;;;;;5.10;0.90;;;;;;;16.11;68.63;101108.31;88553;273;24386;-60
2023/09/05 00:29:39;;;;;;;1.10;0.80;;;;;;;16.10;68.68;101109.66;88421;280;136819;-59
2023/09/05 00:31:41;;;;;;;2.40;0.90;;;;;;;16.08;68.89;101111.13;88781;280;22612;-60
2023/09/05 00:33:45;;;;;;;2.00;1.00;;;;;;;16.06;69.00;101108.68;88276;275;136047;-59
2023/09/05 00:35:52;;;;;;;1.10;0.80;;;;;;;16.05;69.17;101105.45;88493;282;22520;-59
2023/09/05 00:37:54;;;;;;;1.40;1.10;;;;;;;16.02;69.31;101104.84;88424;277;137671;-60
2023/09/05 00:39:56;;;;;;;1.20;0.80;;;;;;;16.01;69.15;101105.79;88700;281;23472;-59
2023/09/05 00:42:01;;;;;;;1.30;0.90;;;;;;;16.01;69.07;101106.77;88381;273;137249;-58
2023/09/05 00:44:04;;;;;;;2.70;1.40;;;;;;;16.04;68.91;101108.64;88324;275;136714;-60
2023/09/05 00:46:06;;;;;;;1.30;0.70;;;;;;;16.02;69.18;101110.58;88686;277;22589;-58
2023/09/05 00:48:09;;;;;;;2.90;1.00;;;;;;;16.01;69.27;101113.23;88743;276;136308;-59
2023/09/05 00:50:11;;;;;;;1.90;0.80;;;;;;;16.00;69.32;101110.55;88469;273;22518;-60
2023/09/05 00:52:14;;;;;;;1.90;1.20;;;;;;;15.94;69.42;101107.88;88409;280;136329;-60
2023/09/05 00:54:17;;;;;;;0.80;0.70;;;;;;;15.93;69.60;101107.54;88344;282;24173;-61
2023/09/05 00:56:19;;;;;;;2.20;1.40;;;;;;;15.95;69.58;101110.31;88414;281;137119;-61
2023/09/05 00:58:21;;;;;;;1.70;1.10;;;;;;;15.97;69.40;101110.08;89175;273;22524;-60
2023/09/05 01:00:24;;;;;;;1.20;1.00;;;;;;;15.95;69.63;101113.34;88470;273;136996;-62
2023/09/05 01:02:25;;;;;;;1.30;0.80;;;;;;;15.92;69.62;101117.89;88573;273;22643;-60
2023/09/05 01:04:33;;;;;;;2.40;1.00;;;;;;;15.84;69.97;101118.11;88412;276;137888;-61
2023/09/05 01:06:56;;;;;;;1.70;1.20;;;;;;;15.78;70.19;101118.82;88595;273;22547;-63
2023/09/05 01:09:09;;;;;;;1.00;0.70;;;;;;;15.72;70.37;101123.33;88448;280;137610;-59
2023/09/05 01:11:14;;;;;;;2.90;1.00;;;;;;;15.67;70.63;101122.86;88600;280;22512;-58
2023/09/05 01:13:25;;;;;;;3.90;1.10;;;;;;;15.66;70.84;101123.27;88128;276;136968;-55
2023/09/05 01:15:27;;;;;;;0.90;0.80;;;;;;;15.63;70.93;101126.15;88739;280;24037;-58
2023/09/05 01:17:29;;;;;;;1.50;0.80;;;;;;;15.59;71.45;101128.53;88555;279;137579;-60
2023/09/05 01:19:36;;;;;;;1.30;0.70;;;;;;;15.54;71.66;101129.35;88522;277;22504;-59
2023/09/05 01:21:45;;;;;;;1.20;1.00;;;;;;;15.48;72.04;101131.85;88520;280;138383;-60
2023/09/05 01:23:57;;;;;;;1.70;1.10;;;;;;;15.45;72.23;101131.17;88507;275;22570;-61
2023/09/05 01:26:00;;;;;;;3.90;1.20;;;;;;;15.34;72.39;101121.92;88513;279;138439;-59
2023/09/05 01:28:04;;;;;;;3.90;0.90;;;;;;;15.34;72.73;101130.50;88302;282;24823;-59
2023/09/05 01:30:08;;;;;;;1.10;1.00;;;;;;;15.31;73.00;101134.30;88768;280;22521;-58
2023/09/05 01:32:10;;;;;;;4.10;1.10;;;;;;;15.25;73.34;101130.39;88524;278;136656;-59
2023/09/05 01:34:12;;;;;;;1.40;1.00;;;;;;;15.20;73.74;101129.17;88694;272;25074;-60
2023/09/05 01:36:15;;;;;;;2.60;0.90;;;;;;;15.12;74.55;101129.55;88428;280;136366;-54
2023/09/05 01:38:17;;;;;;;2.20;1.00;;;;;;;15.09;74.49;101127.85;88505;280;22596;-61
2023/09/05 01:40:19;;;;;;;1.60;1.50;;;;;;;15.07;74.78;101128.65;88272;275;136588;-60
2023/09/05 01:42:22;;;;;;;1.60;1.10;;;;;;;15.06;74.82;101129.09;88562;273;25102;-59
2023/09/05 01:44:25;;;;;;;1.30;1.20;;;;;;;15.05;74.88;101128.55;88464;272;136801;-59
2023/09/05 01:46:27;;;;;;;3.20;1.20;;;;;;;15.05;74.70;101132.60;88666;280;25146;-61
2023/09/05 01:48:28;;;;;;;0.60;0.50;;;;;;;15.07;74.68;101132.90;88359;277;137253;-59
2023/09/05 01:50:33;;;;;;;2.00;0.90;;;;;;;15.09;74.77;101136.18;88611;280;22541;-62
2023/09/05 01:52:34;;;;;;;1.40;1.00;;;;;;;15.13;74.63;101131.44;88572;272;136413;-59
2023/09/05 01:54:40;;;;;;;2.00;1.20;;;;;;;15.14;74.55;101132.52;88538;273;24054;-62
2023/09/05 01:56:42;;;;;;;2.50;0.80;;;;;;;15.14;74.66;101130.80;88593;280;136062;-60
2023/09/05 01:58:44;;;;;;;1.20;0.90;;;;;;;15.14;74.52;101131.05;88503;274;24723;-61
2023/09/05 02:00:46;;;;;;;1.10;0.90;;;;;;;15.12;74.65;101133.50;88344;274;136179;-61
2023/09/05 02:02:47;;;;;;;1.10;1.00;;;;;;;15.08;74.82;101130.84;88607;280;25239;-61
2023/09/05 02:04:49;;;;;;;1.50;1.20;;;;;;;15.06;74.85;101133.93;88541;273;137971;-61
2023/09/05 02:06:51;;;;;;;1.30;1.10;;;;;;;15.04;75.05;101134.88;88613;282;24943;-61
2023/09/05 02:08:53;;;;;;;0.70;0.70;;;;;;;15.04;74.80;101134.63;88456;280;138251;-58
2023/09/05 02:10:55;;;;;;;1.00;0.90;;;;;;;15.05;74.81;101137.11;88485;282;25298;-58
2023/09/05 02:12:57;;;;;;;1.90;1.80;;;;;;;15.05;74.72;101137.48;88433;279;137042;-61
2023/09/05 02:15:00;;;;;;;1.10;1.00;;;;;;;15.05;74.73;101136.08;88593;281;22541;-57
2023/09/05 02:17:02;;;;;;;3.90;0.80;;;;;;;15.04;74.83;101135.69;88512;273;138138;-59
2023/09/05 02:19:04;;;;;;;1.60;1.00;;;;;;;15.02;74.90;101137.70;88502;278;22572;-60
2023/09/05 02:21:06;;;;;;;0.90;0.70;;;;;;;15.03;74.83;101142.09;88412;273;136296;-60
2023/09/05 02:23:08;;;;;;;1.60;1.00;;;;;;;15.02;74.87;101143.21;88482;278;22527;-59
2023/09/05 02:25:11;;;;;;;1.80;1.40;;;;;;;15.01;74.89;101145.23;88557;273;137314;-58
2023/09/05 02:27:13;;;;;;;4.50;1.30;;;;;;;15.00;75.07;101145.09;88566;281;24210;-59
2023/09/05 02:29:15;;;;;;;2.00;1.20;;;;;;;15.00;75.14;101143.11;88442;280;138678;-59
2023/09/05 02:31:18;;;;;;;0.90;0.90;;;;;;;14.98;75.18;101142.44;88528;282;22542;-61
2023/09/05 02:33:22;;;;;;;2.70;1.30;;;;;;;14.97;75.22;101145.28;88402;282;137176;-60
2023/09/05 02:35:27;;;;;;;0.90;0.80;;;;;;;14.98;75.26;101143.50;88626;273;25103;-59
2023/09/05 02:37:28;;;;;;;1.40;1.20;;;;;;;15.00;75.25;101145.02;88528;273;136674;-59
2023/09/05 02:41:39;;;;;;;2.30;1.10;;;;;;;14.85;75.97;101145.62;86790;305;604201;-60
2023/09/05 02:43:41;;;;;;;1.00;0.90;;;;;;;14.81;76.07;101148.90;87980;294;24217;-62
2023/09/05 02:45:51;;;;;;;1.20;1.00;;;;;;;14.80;76.10;101146.00;87848;294;135584;-59
2023/09/05 02:47:54;;;;;;;1.40;1.30;;;;;;;14.86;76.10;101151.86;87951;295;22543;-59
2023/09/05 02:49:57;;;;;;;1.00;0.60;;;;;;;14.85;75.93;101155.94;87838;293;136280;-60
2023/09/05 02:52:00;;;;;;;3.10;1.20;;;;;;;14.82;76.17;101153.00;87917;284;24026;-60
2023/09/05 02:54:02;;;;;;;2.30;1.10;;;;;;;14.81;76.25;101156.26;87882;284;135981;-61
2023/09/05 02:56:04;;;;;;;2.80;1.50;;;;;;;14.83;76.12;101155.47;87349;288;699547;-60
2023/09/05 02:58:06;;;;;;;1.30;1.20;;;;;;;14.76;76.66;101160.83;88040;282;23985;-59
2023/09/05 03:00:08;;;;;;;1.60;1.00;;;;;;;14.66;77.18;101162.37;87943;282;137016;-60
2023/09/05 03:02:10;;;;;;;1.70;0.90;;;;;;;14.62;77.41;101162.77;88179;284;25131;-60
2023/09/05 03:04:14;;;;;;;2.00;0.80;;;;;;;14.64;77.28;101163.52;87988;290;136807;-59
2023/09/05 03:06:17;;;;;;;2.10;0.80;;;;;;;14.61;77.42;101165.27;88114;283;24142;-61
2023/09/05 03:08:19;;;;;;;1.40;1.10;;;;;;;14.52;77.57;101156.02;87936;286;136851;-60
2023/09/05 03:10:21;;;;;;;1.80;1.30;;;;;;;14.56;77.74;101163.48;88095;282;25089;-61
2023/09/05 03:12:23;;;;;;;1.20;1.10;;;;;;;14.55;77.77;101166.30;87948;286;136671;-60
2023/09/05 03:14:25;;;;;;;3.70;2.00;;;;;;;14.54;77.85;101169.52;88047;282;25220;-59
2023/09/05 03:16:28;;;;;;;1.70;1.20;;;;;;;14.53;78.07;101173.23;88082;288;136651;-61
2023/09/05 03:18:30;;;;;;;1.80;1.30;;;;;;;14.55;78.01;101174.48;88309;284;24236;-60
2023/09/05 03:20:33;;;;;;;2.40;1.20;;;;;;;14.56;77.79;101176.53;88279;286;135707;-57
2023/09/05 03:22:36;;;;;;;2.50;0.90;;;;;;;14.55;78.03;101178.52;88281;279;24067;-63
2023/09/05 03:24:38;;;;;;;1.50;1.40;;;;;;;14.44;78.26;101164.29;88160;278;137433;-60
2023/09/05 03:26:40;;;;;;;4.50;2.60;;;;;;;14.48;78.25;101179.38;88347;284;25240;-63
2023/09/05 03:28:44;;;;;;;2.40;1.40;;;;;;;14.48;78.37;101184.58;88244;286;136614;-62
2023/09/05 03:30:49;;;;;;;2.60;1.50;;;;;;;14.47;78.39;101183.95;88303;287;24009;-62
2023/09/05 03:32:50;;;;;;;3.60;1.10;;;;;;;14.47;78.40;101183.59;88485;277;138057;-59
2023/09/05 03:34:52;;;;;;;2.40;1.00;;;;;;;14.46;78.66;101185.70;88451;275;22520;-59
2023/09/05 03:36:55;;;;;;;1.10;1.00;;;;;;;14.45;78.76;101181.17;88532;281;136422;-59
2023/09/05 03:38:56;;;;;;;1.10;1.00;;;;;;;14.43;78.87;101183.17;88562;274;25096;-59
2023/09/05 03:40:59;;;;;;;4.10;1.70;;;;;;;14.43;78.92;101181.23;88416;279;136825;-58
2023/09/05 03:43:01;;;;;;;1.60;1.50;;;;;;;14.46;78.86;101178.40;88396;279;22523;-61
2023/09/05 03:45:04;;;;;;;1.60;1.40;;;;;;;14.54;78.54;101175.42;88465;282;137787;-62
2023/09/05 03:47:05;;;;;;;3.80;1.30;;;;;;;14.61;78.06;101181.29;88552;275;22540;-62
2023/09/05 03:49:07;;;;;;;2.20;1.10;;;;;;;14.67;77.87;101182.56;88455;281;136725;-61
2023/09/05 03:51:12;;;;;;;1.30;1.00;;;;;;;14.77;77.58;101185.25;88389;284;22534;-60
2023/09/05 03:53:14;;;;;;;2.30;1.30;;;;;;;14.94;76.96;101183.13;88398;276;136014;-61
2023/09/05 03:55:19;;;;;;;2.30;1.40;;;;;;;15.19;75.99;101180.98;88525;282;22628;-63
2023/09/05 03:57:21;;;;;;;1.90;1.20;;;;;;;15.46;74.37;101180.11;88410;281;137276;-64
2023/09/05 03:59:23;;;;;;;2.90;1.30;;;;;;;15.72;73.27;101182.83;88398;283;25231;-59
2023/09/05 04:01:25;;;;;;;1.40;1.30;;;;;;;16.01;71.73;101179.61;88173;275;137128;-58
2023/09/05 04:03:27;;;;;;;1.90;1.50;;;;;;;16.28;70.22;101185.01;88317;275;22541;-60
2023/09/05 04:05:32;;;;;;;3.20;1.00;;;;;;;16.43;68.81;101188.91;88470;281;137420;-58
2023/09/05 04:07:34;;;;;;;2.00;0.80;;;;;;;16.48;68.26;101177.31;89462;281;24089;-59
2023/09/05 04:09:37;;;;;;;2.60;1.30;;;;;;;16.68;67.63;101190.32;88547;281;135739;-58
2023/09/05 04:11:39;;;;;;;2.40;1.30;;;;;;;16.84;66.77;101190.93;88411;282;24018;-60
2023/09/05 04:13:41;;;;;;;2.70;1.40;;;;;;;17.00;65.89;101193.78;88312;278;136169;-59
2023/09/05 04:15:42;;;;;;;1.40;1.30;;;;;;;17.21;64.99;101193.19;88306;279;25144;-58
2023/09/05 04:17:48;;;;;;;2.10;1.70;;;;;;;17.45;64.24;101191.67;88260;282;137366;-57
2023/09/05 04:19:54;;;;;;;1.70;1.30;;;;;;;17.76;62.99;101189.94;88390;275;22525;-63
2023/09/05 04:21:56;;;;;;;3.40;1.20;;;;;;;18.08;61.53;101193.42;88350;275;135596;-59
2023/09/05 04:23:58;;;;;;;3.10;1.40;;;;;;;18.36;60.00;101193.94;88306;275;22549;-63
2023/09/05 04:26:02;;;;;;;1.60;1.30;;;;;;;18.62;59.02;101200.88;88316;274;137150;-60
2023/09/05 04:28:05;;;;;;;1.40;1.30;;;;;;;18.83;58.29;101201.75;88375;276;136097;-60
2023/09/05 04:30:09;;;;;;;3.50;1.50;;;;;;;19.08;56.92;101203.11;89407;275;22661;-58
2023/09/05 04:32:11;;;;;;;2.30;1.40;;;;;;;19.34;56.44;101204.80;88337;275;137397;-61
2023/09/05 04:34:13;;;;;;;1.20;0.90;;;;;;;19.69;54.89;101202.77;88366;274;22553;-62
2023/09/05 04:36:14;;;;;;;2.00;1.20;;;;;;;19.92;53.63;101199.76;88256;278;135992;-66
2023/09/05 04:38:16;;;;;;;1.40;1.10;;;;;;;20.01;53.46;101201.08;88303;275;22542;-63
2023/09/05 04:40:18;;;;;;;2.70;0.90;;;;;;;20.07;53.12;101194.91;88355;279;136139;-60
2023/09/05 04:42:21;;;;;;;1.70;1.30;;;;;;;20.25;52.62;101198.60;88419;274;24169;-65
2023/09/05 04:44:27;;;;;;;1.60;1.30;;;;;;;20.38;52.09;101195.81;88290;275;136341;-62
2023/09/05 04:46:31;;;;;;;2.90;1.40;;;;;;;20.55;51.76;101195.41;88275;274;22708;-60
2023/09/05 04:48:33;;;;;;;0.90;0.80;;;;;;;20.85;50.77;101202.70;88161;274;137130;-61
2023/09/05 04:50:34;;;;;;;1.40;1.30;;;;;;;21.13;49.79;101198.77;88309;274;22526;-60
2023/09/05 04:52:36;;;;;;;1.40;1.30;;;;;;;21.30;49.52;101197.34;88232;279;135832;-69
2023/09/05 04:54:38;;;;;;;3.40;1.60;;;;;;;21.52;48.61;101199.79;91314;274;23378;-70
2023/09/05 04:56:40;;;;;;;1.50;1.00;;;;;;;21.69;47.77;101192.20;91184;282;135529;-69
2023/09/05 04:58:42;;;;;;;4.70;1.40;;;;;;;21.84;47.51;101189.33;90184;280;25923;-71
2023/09/05 05:00:44;;;;;;;4.30;1.20;;;;;;;22.03;47.00;101187.06;88232;274;135960;-71
2023/09/05 05:02:46;;;;;;;1.60;1.50;;;;;;;22.34;46.27;101188.92;88221;276;25188;-70
2023/09/05 05:04:47;;;;;;;4.10;1.00;;;;;;;22.58;45.55;101184.70;88267;280;136064;-70
2023/09/05 05:06:49;;;;;;;1.40;0.90;;;;;;;22.78;45.21;101181.80;88314;282;22635;-69
2023/09/05 05:08:51;;;;;;;6.20;1.10;;;;;;;22.96;44.64;101184.28;88196;279;136079;-68
2023/09/05 05:10:52;;;;;;;2.50;1.20;;;;;;;23.08;43.88;101181.83;88347;275;25216;-71
2023/09/05 05:12:54;;;;;;;5.10;1.40;;;;;;;23.03;43.61;101182.82;88314;278;136878;-71
2023/09/05 05:14:56;;;;;;;3.90;1.20;;;;;;;22.93;43.82;101188.33;88339;282;22546;-69
2023/09/05 05:16:58;;;;;;;2.70;1.30;;;;;;;22.91;44.26;101187.59;88293;279;135873;-71
2023/09/05 05:18:59;;;;;;;1.50;1.10;;;;;;;23.02;43.89;101189.60;88387;274;22538;-69
2023/09/05 05:21:01;;;;;;;3.20;1.40;;;;;;;23.13;43.29;101186.83;88305;275;136664;-68
2023/09/05 05:23:04;;;;;;;3.00;1.40;;;;;;;23.06;43.27;101186.02;88352;275;22536;-70
2023/09/05 05:25:07;;;;;;;4.00;2.10;;;;;;;22.92;43.61;101171.13;88363;274;136958;-70
2023/09/05 05:27:09;;;;;;;2.70;1.40;;;;;;;22.96;43.46;101178.95;88457;279;22596;-70
2023/09/05 05:29:11;;;;;;;3.50;1.10;;;;;;;22.93;43.42;101173.10;88481;279;136083;-68
2023/09/05 05:31:13;;;;;;;4.40;1.40;;;;;;;22.80;43.56;101173.84;88520;273;22546;-70
2023/09/05 05:33:15;;;;;;;2.30;0.90;;;;;;;22.64;43.99;101175.83;88302;275;136162;-71
2023/09/05 05:35:17;;;;;;;3.80;1.40;;;;;;;22.70;44.59;101175.98;88290;281;25096;-70
2023/09/05 05:37:19;;;;;;;2.60;0.90;;;;;;;22.96;43.90;101177.98;88147;274;135768;-70
2023/09/05 05:39:22;;;;;;;1.20;1.10;;;;;;;23.07;43.59;101180.71;88376;281;25134;-69
2023/09/05 05:41:25;;;;;;;1.50;1.20;;;;;;;23.08;43.95;101182.97;88187;281;135983;-69
2023/09/05 05:43:29;;;;;;;4.00;1.60;;;;;;;23.22;43.38;101186.12;89728;276;22534;-69
2023/09/05 05:45:31;;;;;;;1.90;1.40;;;;;;;23.24;43.53;101189.27;88262;282;136279;-68
2023/09/05 05:47:32;;;;;;;1.60;0.80;;;;;;;23.33;43.16;101190.84;88361;275;22548;-69
2023/09/05 05:49:34;;;;;;;1.30;1.20;;;;;;;23.27;43.18;101190.05;88189;283;136864;-70
2023/09/05 05:51:37;;;;;;;2.10;1.30;;;;;;;23.12;43.11;101189.91;88360;278;22611;-70
2023/09/05 05:53:39;;;;;;;4.50;1.00;;;;;;;22.97;44.05;101190.88;88216;275;136124;-69
2023/09/05 05:55:41;;;;;;;2.10;1.40;;;;;;;22.94;43.89;101192.41;88388;278;25121;-69
2023/09/05 05:57:43;;;;;;;6.60;1.40;;;;;;;22.90;43.86;101196.31;88179;282;135809;-71
2023/09/05 05:59:45;;;;;;;1.20;1.10;;;;;;;22.89;44.08;101202.02;88260;275;25306;-70
2023/09/05 06:01:47;;;;;;;3.40;1.50;;;;;;;23.01;44.41;101202.64;88271;273;135967;-71
2023/09/05 06:03:49;;;;;;;3.90;0.90;;;;;;;23.22;43.85;101200.44;88589;278;22544;-72
2023/09/05 06:05:51;;;;;;;1.60;1.10;;;;;;;23.42;43.53;101199.02;88254;274;136327;-70
2023/09/05 06:07:53;;;;;;;4.30;1.30;;;;;;;23.54;43.38;101198.45;88323;274;24025;-70
2023/09/05 06:09:55;;;;;;;1.10;0.80;;;;;;;23.63;42.71;101195.23;88156;275;136135;-70
2023/09/05 06:11:58;;;;;;;3.10;1.40;;;;;;;23.72;42.36;101195.91;88306;281;25213;-70
2023/09/05 06:14:00;;;;;;;1.00;0.90;;;;;;;23.75;42.12;101195.63;90426;280;137220;-69
2023/09/05 06:16:03;;;;;;;1.50;0.70;;;;;;;23.57;42.33;101196.90;88512;275;25118;-71
2023/09/05 06:18:06;;;;;;;1.00;0.70;;;;;;;23.32;43.11;101188.87;88483;281;23404;-69
2023/09/05 06:20:11;;;;;;;3.50;0.90;;;;;;;23.30;43.24;101203.47;88446;274;136186;-68
2023/09/05 06:22:13;;;;;;;1.00;0.80;;;;;;;23.26;43.25;101199.45;88560;274;25150;-70
2023/09/05 06:24:16;;;;;;;2.00;0.80;;;;;;;23.22;43.32;101200.70;88208;274;136457;-67
2023/09/05 06:26:19;;;;;;;3.00;0.60;;;;;;;23.11;43.60;101200.19;88329;278;24891;-69
2023/09/05 06:28:20;;;;;;;1.60;0.70;;;;;;;22.97;43.90;101202.45;88162;281;136332;-69
2023/09/05 06:30:23;;;;;;;1.80;1.10;;;;;;;22.89;44.23;101206.58;88297;275;22544;-70
2023/09/05 06:32:24;;;;;;;4.20;0.70;;;;;;;22.86;44.33;101205.08;88027;278;136291;-70
2023/09/05 06:34:26;;;;;;;1.40;0.80;;;;;;;22.79;44.90;101200.39;88241;278;22888;-68
2023/09/05 06:36:28;;;;;;;0.90;0.60;;;;;;;22.88;44.96;101200.09;88158;282;136014;-69
2023/09/05 06:38:30;;;;;;;0.80;0.60;;;;;;;22.86;44.82;101198.11;88495;275;24027;-68
2023/09/05 06:40:32;;;;;;;4.50;0.90;;;;;;;22.73;45.06;101198.20;88160;282;136114;-70
2023/09/05 06:42:33;;;;;;;5.00;1.00;;;;;;;22.67;45.47;101194.73;88313;275;26304;-69
2023/09/05 06:44:35;;;;;;;2.40;1.10;;;;;;;22.84;45.25;101193.90;88193;279;136873;-69
2023/09/05 06:46:37;;;;;;;3.40;0.80;;;;;;;22.99;44.82;101194.59;88288;282;22542;-71
2023/09/05 06:48:39;;;;;;;0.80;0.80;;;;;;;22.99;45.22;101196.12;88227;282;136397;-70
2023/09/05 06:50:42;;;;;;;1.80;0.80;;;;;;;22.99;44.94;101192.36;88905;280;23521;-68
2023/09/05 06:52:44;;;;;;;3.70;0.70;;;;;;;22.81;45.30;101192.13;88283;282;136115;-70
2023/09/05 06:54:46;;;;;;;0.80;0.50;;;;;;;22.52;45.96;101187.92;88417;282;24017;-70
2023/09/05 06:56:48;;;;;;;1.10;0.50;;;;;;;22.27;46.83;101192.45;88253;282;136409;-70
2023/09/05 06:58:50;;;;;;;3.60;1.10;;;;;;;22.09;47.59;101188.86;88420;282;24173;-67
2023/09/05 07:00:55;;;;;;;2.30;1.50;;;;;;;21.90;47.98;101189.10;88226;282;136485;-69
2023/09/05 07:02:57;;;;;;;2.30;0.70;;;;;;;21.84;48.23;101186.45;88405;275;22534;-68
2023/09/05 07:04:59;;;;;;;2.90;1.00;;;;;;;21.84;48.33;101184.61;88274;278;137661;-69
2023/09/05 07:07:03;;;;;;;0.80;0.60;;;;;;;21.84;48.41;101183.19;88855;278;25125;-69
2023/09/05 07:09:08;;;;;;;2.40;0.80;;;;;;;21.77;48.63;101186.17;88275;275;136314;-70
2023/09/05 07:11:10;;;;;;;2.20;0.60;;;;;;;21.64;49.06;101188.23;88392;282;22717;-70
2023/09/05 07:13:12;;;;;;;1.10;0.80;;;;;;;21.50;49.63;101187.59;88307;275;136367;-70
2023/09/05 07:15:14;;;;;;;0.90;0.80;;;;;;;21.43;49.92;101186.46;88319;279;22536;-70
2023/09/05 07:17:16;;;;;;;1.70;0.60;;;;;;;21.42;50.37;101181.64;88227;282;136885;-70
2023/09/05 07:19:18;;;;;;;2.50;0.60;;;;;;;21.41;49.44;101180.44;88341;278;25134;-70
2023/09/05 07:21:20;;;;;;;0.80;0.30;;;;;;;21.40;49.11;101185.73;88228;282;137494;-70
2023/09/05 07:23:22;;;;;;;1.30;0.80;;;;;;;21.35;49.13;101178.80;88435;282;22536;-71
2023/09/05 07:25:24;;;;;;;2.60;0.80;;;;;;;21.33;49.62;101183.45;88187;274;136418;-69
2023/09/05 07:27:26;;;;;;;2.10;0.70;;;;;;;21.30;49.55;101176.52;88389;275;24052;-70
2023/09/05 07:29:28;;;;;;;0.80;0.50;;;;;;;21.31;49.99;101172.59;88233;275;136385;-70
2023/09/05 07:31:31;;;;;;;0.60;0.60;;;;;;;21.34;50.37;101177.58;88338;282;22625;-68
2023/09/05 07:33:33;;;;;;;3.70;0.70;;;;;;;21.42;49.55;101171.50;88305;274;137090;-68
2023/09/05 07:35:36;;;;;;;0.60;0.50;;;;;;;21.49;49.38;101178.35;88378;282;22537;-69
2023/09/05 07:37:38;;;;;;;0.70;0.50;;;;;;;21.57;49.11;101178.50;88331;275;136701;-70
2023/09/05 07:39:44;;;;;;;1.90;1.20;;;;;;;21.61;49.49;101174.02;88392;275;24023;-70
2023/09/05 07:41:45;;;;;;;0.90;0.60;;;;;;;21.67;48.97;101170.46;88425;282;136103;-66
2023/09/05 07:43:47;;;;;;;0.70;0.70;;;;;;;21.76;48.74;101168.30;88343;274;22533;-68
2023/09/05 07:45:50;;;;;;;2.70;0.50;;;;;;;21.87;48.51;101172.17;88254;275;136190;-70
2023/09/05 07:47:52;;;;;;;1.70;0.40;;;;;;;22.00;48.12;101171.27;88471;280;22529;-70
2023/09/05 07:49:54;;;;;;;0.90;0.60;;;;;;;22.06;47.28;101168.92;88318;280;137514;-70
2023/09/05 07:51:57;;;;;;;1.10;0.60;;;;;;;22.04;46.16;101165.70;88419;279;22617;-69
2023/09/05 07:54:04;;;;;;;1.40;0.30;;;;;;;22.01;44.51;101176.48;88481;273;136034;-70
2023/09/05 07:56:07;;;;;;;2.60;0.40;;;;;;;21.90;44.10;101161.59;88555;273;136960;-70
2023/09/05 07:58:10;;;;;;;2.20;0.60;;;;;;;21.85;44.34;101172.14;88286;282;22546;-71
2023/09/05 08:00:14;;;;;;;1.10;0.60;;;;;;;21.82;45.15;101166.70;88442;281;136321;-70
2023/09/05 08:02:16;;;;;;;;;;;;;;;21.82;45.49;101162.54;89943;274;22508;-71
2023/09/05 08:04:19;;;;;;;0.50;0.40;;;;;;;21.85;44.49;101162.71;88362;278;123525;-69
2023/09/05 08:06:21;;;;;;;0.60;0.50;;;;;;;21.90;44.97;101162.67;88384;274;22546;-70
2023/09/05 08:08:23;;;;;;;0.60;0.40;;;;;;;21.97;44.32;101172.74;88340;274;136585;-69
2023/09/05 08:10:26;;;;;;;0.50;0.30;;;;;;;22.05;42.96;101173.36;88512;275;22520;-70
2023/09/05 08:12:28;;;;;;;2.20;0.40;;;;;;;22.06;42.78;101163.82;88448;273;136301;-70
2023/09/05 08:14:30;;;;;;;1.10;0.30;;;;;;;22.08;42.06;101171.14;88554;278;26186;-71
2023/09/05 08:16:33;;;;;;;1.60;0.50;;;;;;;22.08;41.12;101168.70;88869;281;136274;-70
2023/09/05 08:18:35;;;;;;;0.90;0.40;;;;;;;22.05;41.03;101166.30;88761;274;26283;-70
2023/09/05 08:20:39;;;;;;;0.80;0.50;;;;;;;22.02;41.23;101172.48;88812;281;136094;-70
2023/09/05 08:22:40;;;;;;;0.30;0.30;;;;;;;22.00;41.47;101163.13;88580;281;23709;-70
2023/09/05 08:24:42;;;;;;;1.80;0.40;;;;;;;22.04;41.51;101167.26;88721;273;136387;-66
2023/09/05 08:26:44;;;;;;;0.90;0.40;;;;;;;22.10;41.11;101172.09;88452;282;24054;-70
2023/09/05 08:28:46;;;;;;;1.30;0.40;;;;;;;22.13;40.95;101173.66;88663;279;136198;-74
2023/09/05 08:30:48;;;;;;;0.50;0.30;;;;;;;22.17;41.22;101156.26;88845;282;22544;-75
2023/09/05 08:32:50;;;;;;;2.30;0.40;;;;;;;22.21;40.65;101160.40;88648;282;136059;-78
2023/09/05 08:34:52;;;;;;;1.90;0.40;;;;;;;22.26;39.74;101160.56;88720;282;22527;-77
2023/09/05 08:36:54;;;;;;;0.80;0.80;;;;;;;22.30;39.17;101154.42;88606;274;136265;-78
2023/09/05 08:38:56;;;;;;;2.20;0.70;;;;;;;22.33;39.39;101156.39;88854;281;22796;-75
2023/09/05 08:41:01;;;;;;;1.00;0.30;;;;;;;22.37;39.40;101164.77;88665;279;138043;-76
2023/09/05 08:43:04;;;;;;;1.70;0.40;;;;;;;22.41;39.51;101159.66;88813;275;22540;-74
2023/09/05 08:45:13;;;;;;;0.80;0.50;;;;;;;22.47;38.22;101156.29;89411;279;136059;-77
2023/09/05 08:47:15;;;;;;;2.90;0.40;;;;;;;22.51;36.44;101161.95;88945;281;25118;-76
2023/09/05 08:49:17;;;;;;;1.60;0.70;;;;;;;22.51;35.54;101158.84;88746;281;136092;-78
2023/09/05 08:51:20;;;;;;;0.60;0.60;;;;;;;22.51;35.47;101160.80;88941;281;22574;-80
2023/09/05 08:53:30;;;;;;;0.40;0.40;;;;;;;22.51;36.14;101161.50;88703;281;136097;-77
2023/09/05 08:55:31;;;;;;;0.40;0.40;;;;;;;22.50;34.86;101165.08;88896;282;22562;-74
2023/09/05 08:57:35;;;;;;;0.40;0.30;;;;;;;22.48;34.37;101160.41;88793;281;136202;-79
2023/09/05 08:59:37;;;;;;;0.80;0.50;;;;;;;22.48;35.19;101159.29;88824;273;25252;-79
2023/09/05 09:01:41;;;;;;;0.40;0.30;;;;;;;22.37;35.91;101139.54;88821;278;136034;-83
2023/09/05 09:03:43;;;;;;;2.60;0.40;;;;;;;22.55;36.79;101159.77;88792;281;22530;-77
2023/09/05 09:05:46;;;;;;;2.20;0.50;;;;;;;22.59;37.35;101166.47;88701;274;137666;-84
2023/09/05 09:07:48;;;;;;;0.40;0.30;;;;;;;22.65;37.53;101166.92;89151;282;22536;-76
2023/09/05 09:09:50;;;;;;;0.90;0.60;;;;;;;22.57;37.32;101160.63;88668;276;137130;-72
2023/09/05 09:11:59;;;;;;;0.60;0.30;;;;;;;22.56;37.40;101181.15;88748;279;25152;-73
2023/09/05 09:14:01;;;;;;;0.30;0.30;;;;;;;22.50;37.66;101153.72;89074;282;136527;-70
2023/09/05 09:16:04;;;;;;;1.60;0.30;;;;;;;22.50;38.09;101157.67;89001;282;137602;-76
2023/09/05 09:18:11;;;;;;;0.70;0.70;;;;;;;22.54;37.75;101161.76;89138;282;22527;-76
2023/09/05 09:20:14;;;;;;;0.60;0.40;;;;;;;22.54;37.71;101153.40;89471;283;136148;-78
2023/09/05 09:22:23;;;;;;;3.50;0.40;;;;;;;22.60;38.10;101154.85;89222;278;22548;-77
2023/09/05 09:24:31;;;;;;;0.80;0.60;;;;;;;22.67;38.21;101145.84;89032;283;137157;-77
2023/09/05 09:26:33;;;;;;;0.50;0.30;;;;;;;22.77;38.26;101149.45;89605;282;25290;-76
2023/09/05 09:28:37;;;;;;;1.20;0.30;;;;;;;22.83;37.77;101157.45;89053;275;136212;-79
2023/09/05 09:30:38;;;;;;;6.70;0.50;;;;;;;22.83;37.47;101149.79;89009;282;24077;-73
2023/09/05 09:32:40;;;;;;;1.30;0.50;;;;;;;22.85;37.31;101153.41;88824;280;136172;-72
2023/09/05 09:34:42;;;;;;;0.90;0.50;;;;;;;22.83;37.32;101152.35;89110;279;22538;-75
2023/09/05 09:36:50;;;;;;;3.50;0.40;;;;;;;22.78;37.60;101143.21;88909;275;136168;-75